Bookmark and Share
Track history (hours):
 

Osg Courageous

More information available from US FCC via Universal Licensing System and Coast Guard Vessel Documentation Center.

Last reported at 2014-Apr-15 19:21 UTC. Time now 2014-Apr-16 13:46 UTC.
Position N 30°03' W 090°30'.

Length 187 m; draft 11 m.

Type: Tanker. MMSI: 367481310.

NotesDate/timePositionNaut miles runAvg speedWind from/ knotsBaromVisibWave heightAir tempDewpointWater temp
2014-Apr-15 19:21N 30°03' W 090°30'4 5.6
2014-Apr-15 18:33N 30°03' W 090°35'0 0.0
2014-Apr-15 17:33N 30°03' W 090°35'0 0.0
2014-Apr-15 10:32N 30°03' W 090°35'0 0.0
2014-Apr-15 09:32N 30°03' W 090°35'0 0.0
2014-Apr-15 07:32N 30°03' W 090°35'0 0.0
2014-Apr-15 02:31N 30°03' W 090°35'0 0.0
2014-Apr-15 00:31N 30°03' W 090°35'0 0.0
2014-Apr-14 22:31N 30°03' W 090°35'0 0.0
2014-Apr-14 21:31N 30°03' W 090°35'0 0.0
2014-Apr-14 11:31N 30°03' W 090°35'0 0.0
2014-Apr-14 10:31N 30°03' W 090°35'0 0.0
2014-Apr-14 09:31N 30°03' W 090°35'0 0.0
2014-Apr-14 08:31N 30°03' W 090°35'0 0.0
2014-Apr-14 07:31N 30°03' W 090°35'0 0.0
2014-Apr-14 06:31N 30°03' W 090°35'0 0.0
2014-Apr-14 05:31N 30°03' W 090°35'  
2014-Apr-11 07:33N 29°50' W 089°60'412 8.8
2014-Apr-09 08:33N 27°45' W 082°32'1010.1
2014-Apr-09 07:33N 27°54' W 082°26'3 3.0
2014-Apr-09 06:33N 27°57' W 082°27'0 0.0
2014-Apr-09 05:33N 27°57' W 082°27'0 0.0
2014-Apr-09 04:33N 27°57' W 082°27'0 0.0
2014-Apr-09 03:33N 27°57' W 082°27'0 0.0
2014-Apr-09 02:33N 27°57' W 082°27'0 0.0
2014-Apr-09 01:33N 27°57' W 082°27'0 0.0
2014-Apr-09 00:33N 27°57' W 082°27'0 0.0
2014-Apr-08 23:30N 27°57' W 082°27'0 0.0
2014-Apr-08 22:33N 27°57' W 082°27'0 0.0
2014-Apr-08 21:33N 27°57' W 082°27'0 0.0
2014-Apr-08 20:33N 27°57' W 082°27'0 0.0
2014-Apr-08 19:33N 27°57' W 082°27'0 0.0
2014-Apr-08 18:33N 27°57' W 082°27'0 0.0
2014-Apr-08 17:33N 27°57' W 082°27'2 1.6
2014-Apr-08 16:34N 27°55' W 082°27'1 0.9
2014-Apr-08 15:32N 27°55' W 082°26'0 0.0
2014-Apr-08 14:32N 27°55' W 082°26'0 0.0
2014-Apr-08 13:32N 27°55' W 082°26'0 0.0
2014-Apr-08 12:32N 27°55' W 082°26'0 0.0
2014-Apr-08 11:32N 27°55' W 082°26'0 0.0
2014-Apr-08 10:27N 27°55' W 082°26'2 2.1
2014-Apr-08 09:33N 27°57' W 082°27'0 0.0
2014-Apr-08 08:33N 27°57' W 082°27'0 0.0
2014-Apr-08 07:33N 27°57' W 082°27'0 0.0
2014-Apr-08 06:33N 27°57' W 082°27'0 0.2
2014-Apr-08 05:33N 27°57' W 082°27'2 1.5
2014-Apr-08 04:30N 27°55' W 082°27'0 0.0
2014-Apr-08 03:33N 27°55' W 082°27'0 0.0
2014-Apr-08 02:33N 27°55' W 082°27'0 0.0
2014-Apr-08 01:33N 27°55' W 082°27'0 0.0
2014-Apr-08 00:33N 27°55' W 082°27'0 0.0
2014-Apr-07 23:33N 27°55' W 082°27'0 0.0
2014-Apr-07 22:33N 27°55' W 082°27'0 0.0
2014-Apr-07 21:30N 27°55' W 082°27'0 0.0
2014-Apr-07 20:33N 27°55' W 082°27'0 0.0
2014-Apr-07 19:33N 27°55' W 082°27'13 6.7
2014-Apr-07 17:33N 27°43' W 082°33'48 9.6
2014-Apr-07 12:33N 27°41' W 083°27'1110.8
2014-Apr-07 11:32N 27°44' W 083°39'4710.9
2014-Apr-07 07:15N 27°56' W 084°30'710.6
2014-Apr-07 06:33N 27°57' W 084°38'1310.3
2014-Apr-07 05:20N 27°60' W 084°52'303 9.2
2014-Apr-05 20:26N 29°55' W 090°12'910.0
2014-Apr-05 19:33N 29°56' W 090°22'  

Dump ship's entire track history

sailing weather and tide predictions

Osg Courageous — WDF7122 — position and weather